createdAt,value
2022-12-17T00:02:32.286Z,66.90
2022-12-17T00:05:17.642Z,77.30
2022-12-17T00:08:02.645Z,79.82
2022-12-17T00:10:48.075Z,68.45
2022-12-17T00:13:38.889Z,65.68
2022-12-17T00:16:25.078Z,72.22
2022-12-17T00:19:10.376Z,69.88
2022-12-17T00:21:56.380Z,69.25
2022-12-17T00:24:41.495Z,65.68
2022-12-17T00:27:26.789Z,61.97
2022-12-17T00:30:11.655Z,67.13
2022-12-17T00:32:56.536Z,67.80
2022-12-17T00:35:41.495Z,63.17
2022-12-17T00:38:26.495Z,65.82
2022-12-17T00:41:12.063Z,61.85
2022-12-17T00:43:57.106Z,60.53
2022-12-17T00:46:42.222Z,73.32
2022-12-17T00:49:27.438Z,65.38
2022-12-17T00:52:12.235Z,64.38
2022-12-17T00:54:57.125Z,69.72
2022-12-17T00:57:41.949Z,64.45
2022-12-17T01:00:27.744Z,69.68
2022-12-17T01:03:12.771Z,72.78
2022-12-17T01:05:57.889Z,71.28
2022-12-17T01:08:42.773Z,68.32
2022-12-17T01:11:27.454Z,80.57
2022-12-17T01:14:12.899Z,68.72
2022-12-17T01:16:57.682Z,85.30
2022-12-17T01:19:43.018Z,81.63
2022-12-17T01:22:27.920Z,72.93
2022-12-17T01:25:12.859Z,74.45
2022-12-17T01:27:57.887Z,75.38
2022-12-17T01:30:42.711Z,67.80
2022-12-17T01:33:28.361Z,76.85
2022-12-17T01:36:14.578Z,76.55
2022-12-17T01:38:59.962Z,81.68
2022-12-17T01:41:44.820Z,87.57
2022-12-17T01:44:54.870Z,92.90
2022-12-17T01:47:40.147Z,74.90
2022-12-17T01:50:26.518Z,76.00
2022-12-17T01:53:15.901Z,68.28
2022-12-17T01:56:01.171Z,76.25
2022-12-17T01:58:46.586Z,75.43
2022-12-17T02:01:31.642Z,88.70
2022-12-17T02:04:16.884Z,76.40
2022-12-17T02:07:17.947Z,83.07
2022-12-17T02:10:23.960Z,83.85
2022-12-17T02:13:12.188Z,85.65
2022-12-17T02:16:11.829Z,86.90
2022-12-17T02:21:50.897Z,94.97
2022-12-17T02:24:47.442Z,94.85
2022-12-17T02:27:33.688Z,88.15
2022-12-17T02:30:23.365Z,93.55
2022-12-17T02:33:10.751Z,99.90
2022-12-17T02:36:22.940Z,89.78
2022-12-17T02:39:07.872Z,83.65
2022-12-17T02:42:05.303Z,105.90
2022-12-17T02:44:52.690Z,95.95
2022-12-17T02:47:40.185Z,95.30
2022-12-17T02:50:26.491Z,95.03
2022-12-17T02:53:12.304Z,91.57
2022-12-17T02:55:57.075Z,100.22
2022-12-17T02:58:42.312Z,106.78
2022-12-17T03:01:27.718Z,105.80
2022-12-17T03:04:12.820Z,105.13
2022-12-17T03:06:58.228Z,102.90
2022-12-17T03:09:43.049Z,103.32
2022-12-17T03:12:27.923Z,116.60
2022-12-17T03:15:12.785Z,112.10
2022-12-17T03:17:57.618Z,106.38
2022-12-17T03:20:42.484Z,106.50
2022-12-17T03:23:29.816Z,102.40
2022-12-17T03:26:19.162Z,113.03
2022-12-17T03:29:04.427Z,95.97
2022-12-17T03:31:49.703Z,115.93
2022-12-17T03:34:34.575Z,120.47
2022-12-17T03:37:19.282Z,120.78
2022-12-17T03:40:04.299Z,98.47
2022-12-17T03:42:49.756Z,113.03
2022-12-17T03:45:35.019Z,107.10
2022-12-17T03:48:27.982Z,123.72
2022-12-17T03:51:14.007Z,103.38
2022-12-17T03:53:59.319Z,102.28
2022-12-17T03:56:44.696Z,102.95
2022-12-17T03:59:30.164Z,93.40
2022-12-17T04:02:15.498Z,85.93
2022-12-17T04:05:00.785Z,69.47
2022-12-17T04:07:46.079Z,73.95
2022-12-17T04:10:31.355Z,72.85
2022-12-17T04:13:16.087Z,71.30
2022-12-17T04:16:01.597Z,70.07
2022-12-17T04:18:46.880Z,67.65
2022-12-17T04:21:31.568Z,70.72
2022-12-17T04:24:16.443Z,65.13
2022-12-17T04:27:01.281Z,69.68
2022-12-17T04:29:46.035Z,63.60
2022-12-17T04:32:35.080Z,70.43
2022-12-17T04:35:20.389Z,62.95
2022-12-17T04:38:05.729Z,72.72
2022-12-17T04:40:50.504Z,75.80
2022-12-17T04:43:36.139Z,68.85
2022-12-17T04:46:21.651Z,72.45
2022-12-17T04:49:06.775Z,73.40
2022-12-17T04:51:51.697Z,76.07
2022-12-17T04:54:36.525Z,72.28
2022-12-17T04:57:21.584Z,80.53
2022-12-17T05:00:07.031Z,89.00
2022-12-17T05:02:52.236Z,93.80
2022-12-17T05:05:37.168Z,87.30
2022-12-17T05:08:22.232Z,89.72
2022-12-17T05:11:07.055Z,86.97
2022-12-17T05:13:52.131Z,89.88
2022-12-17T05:16:37.057Z,146.88
2022-12-17T05:19:21.731Z,90.20
2022-12-17T05:22:06.523Z,85.07
2022-12-17T05:24:51.261Z,85.15
2022-12-17T05:27:36.013Z,82.03
2022-12-17T05:30:20.794Z,85.43
2022-12-17T05:33:05.724Z,79.18
2022-12-17T05:35:50.693Z,86.57
2022-12-17T05:38:35.533Z,87.47
2022-12-17T05:41:20.421Z,85.78
2022-12-17T05:44:05.125Z,86.00
2022-12-17T05:46:49.984Z,93.30
2022-12-17T05:49:34.780Z,70.68
2022-12-17T05:52:19.693Z,81.38
2022-12-17T05:55:04.527Z,84.20
2022-12-17T05:57:54.677Z,85.68
2022-12-17T06:00:41.441Z,90.55
2022-12-17T06:03:27.541Z,89.47
2022-12-17T06:06:14.224Z,77.20
2022-12-17T06:08:59.635Z,82.13
2022-12-17T06:11:44.356Z,91.97
2022-12-17T06:14:45.855Z,81.32
2022-12-17T06:17:30.805Z,72.65
2022-12-17T06:20:16.147Z,82.90
2022-12-17T06:23:01.426Z,88.00
2022-12-17T06:25:46.363Z,87.05
2022-12-17T06:28:31.798Z,187.63
2022-12-17T06:31:16.643Z,82.15
2022-12-17T06:34:01.521Z,82.93
2022-12-17T06:36:46.421Z,82.55
2022-12-17T06:39:31.231Z,92.80
2022-12-17T06:42:15.964Z,82.10
2022-12-17T06:45:00.672Z,95.05
2022-12-17T06:47:45.515Z,87.93
2022-12-17T06:50:30.290Z,77.72
2022-12-17T06:53:23.177Z,81.93
2022-12-17T06:56:09.451Z,80.47
2022-12-17T06:58:54.926Z,75.88
2022-12-17T07:01:40.446Z,75.78
2022-12-17T07:04:25.722Z,76.85
2022-12-17T07:07:10.556Z,80.85
2022-12-17T07:09:55.556Z,74.93
2022-12-17T07:12:42.357Z,82.10
2022-12-17T07:15:27.687Z,76.53
2022-12-17T07:18:15.143Z,80.30
2022-12-17T07:21:00.423Z,87.68
2022-12-17T07:23:45.927Z,68.82
2022-12-17T07:26:30.942Z,68.68
2022-12-17T07:29:15.799Z,76.22
2022-12-17T07:32:00.992Z,85.90
2022-12-17T07:34:46.409Z,74.05
2022-12-17T07:37:31.737Z,88.28
2022-12-17T07:40:16.853Z,75.50
2022-12-17T07:43:01.883Z,78.50
2022-12-17T07:45:47.394Z,80.70
2022-12-17T07:48:32.022Z,76.22
2022-12-17T07:51:16.859Z,72.18
2022-12-17T07:54:01.665Z,81.45
2022-12-17T07:56:46.922Z,82.35
2022-12-17T07:59:31.727Z,82.00
2022-12-17T08:02:16.931Z,78.40
2022-12-17T08:05:01.918Z,76.65
2022-12-17T08:07:46.575Z,75.50
2022-12-17T08:10:31.530Z,76.05
2022-12-17T08:13:19.293Z,78.63
2022-12-17T08:16:05.059Z,77.13
2022-12-17T08:18:50.217Z,85.78
2022-12-17T08:21:35.607Z,79.60
2022-12-17T08:24:37.809Z,75.85
2022-12-17T08:27:23.108Z,77.45
2022-12-17T08:30:08.066Z,73.53
2022-12-17T08:32:52.910Z,77.45
2022-12-17T08:35:37.855Z,73.60
2022-12-17T08:38:32.825Z,73.32
2022-12-17T08:41:19.821Z,75.15
2022-12-17T08:44:04.665Z,64.93
2022-12-17T08:46:49.520Z,70.53
2022-12-17T08:49:34.624Z,71.32
2022-12-17T08:52:19.486Z,76.03
2022-12-17T08:55:04.388Z,69.13
2022-12-17T08:57:49.192Z,67.45
2022-12-17T09:00:34.734Z,71.80
2022-12-17T09:03:21.274Z,84.88
2022-12-17T09:06:06.635Z,67.88
2022-12-17T09:08:52.115Z,71.40
2022-12-17T09:11:36.871Z,72.07
2022-12-17T09:14:21.556Z,73.72
2022-12-17T09:17:06.472Z,72.35
2022-12-17T09:19:51.690Z,68.38
2022-12-17T09:22:36.592Z,62.30
2022-12-17T09:25:21.980Z,70.55
2022-12-17T09:28:06.886Z,74.55
2022-12-17T09:30:52.235Z,67.80
2022-12-17T09:33:38.478Z,63.65
2022-12-17T09:36:24.820Z,68.95
2022-12-17T09:39:09.614Z,64.03
2022-12-17T09:42:26.824Z,73.93
2022-12-17T09:45:20.866Z,65.38
2022-12-17T09:48:36.552Z,69.80
2022-12-17T09:51:21.637Z,66.95
2022-12-17T09:54:12.043Z,74.28
2022-12-17T09:57:01.039Z,65.40
2022-12-17T10:02:44.481Z,61.03
2022-12-17T10:05:41.468Z,62.88
2022-12-17T10:08:32.032Z,61.83
2022-12-17T10:11:34.180Z,71.15
2022-12-17T10:14:31.286Z,68.65
2022-12-17T10:17:16.068Z,65.82
2022-12-17T10:20:01.442Z,72.75
2022-12-17T10:22:46.355Z,72.65
2022-12-17T10:25:40.896Z,67.63
2022-12-17T10:28:30.831Z,68.57
2022-12-17T10:31:17.203Z,64.80
2022-12-17T10:34:03.392Z,70.22
2022-12-17T10:36:48.720Z,71.40
2022-12-17T10:39:38.321Z,64.82
2022-12-17T10:42:43.831Z,69.25
2022-12-17T10:45:45.095Z,69.50
2022-12-17T10:48:49.807Z,67.78
2022-12-17T10:51:49.333Z,70.93
2022-12-17T10:54:49.683Z,66.05
2022-12-17T10:57:54.770Z,69.75
2022-12-17T11:00:45.689Z,73.28
2022-12-17T11:03:44.892Z,74.43
2022-12-17T11:06:38.898Z,69.03
2022-12-17T11:09:37.285Z,67.50
2022-12-17T11:12:30.561Z,62.92
2022-12-17T11:15:21.610Z,72.25
2022-12-17T11:18:11.397Z,62.03
2022-12-17T11:21:23.871Z,67.78
2022-12-17T11:24:10.308Z,57.88
2022-12-17T11:26:58.228Z,62.28
2022-12-17T11:29:43.217Z,64.05
2022-12-17T11:32:50.399Z,80.20
2022-12-17T11:35:45.093Z,64.25
2022-12-17T11:38:40.417Z,74.35
2022-12-17T11:41:41.044Z,55.38
2022-12-17T11:44:36.069Z,67.82
2022-12-17T11:47:47.267Z,72.47
2022-12-17T11:50:56.463Z,96.65
2022-12-17T11:54:13.297Z,75.70
2022-12-17T11:57:06.266Z,72.43
2022-12-17T12:00:16.537Z,57.28
2022-12-17T12:06:15.894Z,74.80
2022-12-17T12:09:19.228Z,67.10
2022-12-17T12:12:19.277Z,75.93
2022-12-17T12:15:20.340Z,70.05
2022-12-17T12:18:12.995Z,73.93
2022-12-17T12:21:39.510Z,68.47
2022-12-17T12:25:03.932Z,71.45
2022-12-17T12:28:10.959Z,81.65
2022-12-17T12:31:24.324Z,75.05
2022-12-17T12:34:16.285Z,64.40
2022-12-17T12:37:03.868Z,75.10
2022-12-17T12:40:33.448Z,69.60
2022-12-17T12:43:23.536Z,69.05
2022-12-17T12:46:25.068Z,69.78
2022-12-17T12:49:27.127Z,69.53
2022-12-17T12:52:14.524Z,67.47
2022-12-17T12:55:05.331Z,69.32
2022-12-17T12:57:55.939Z,63.90
2022-12-17T13:00:55.089Z,75.25
2022-12-17T13:03:52.884Z,63.60
2022-12-17T13:06:44.180Z,61.55
2022-12-17T13:09:16.887Z,61.10
2022-12-17T13:11:46.249Z,62.85
2022-12-17T13:14:26.877Z,60.60
2022-12-17T13:17:07.244Z,63.40
2022-12-17T13:19:43.856Z,59.42
2022-12-17T13:22:10.240Z,63.25
2022-12-17T13:24:37.122Z,68.50
2022-12-17T13:27:04.377Z,62.38
2022-12-17T13:29:37.665Z,66.57
2022-12-17T13:32:28.588Z,72.05
2022-12-17T13:35:04.423Z,62.72
2022-12-17T13:38:08.653Z,57.92
2022-12-17T13:40:54.606Z,59.80
2022-12-17T13:43:31.714Z,54.78
2022-12-17T13:45:58.588Z,60.55
2022-12-17T13:48:28.347Z,59.35
2022-12-17T13:51:03.825Z,59.20
2022-12-17T13:53:34.115Z,63.15
2022-12-17T13:56:01.395Z,64.22
2022-12-17T13:58:31.527Z,68.00
2022-12-17T14:01:10.076Z,67.30
2022-12-17T14:04:04.226Z,71.05
2022-12-17T14:06:35.699Z,59.40
2022-12-17T14:09:03.047Z,65.95
2022-12-17T14:11:50.249Z,62.60
2022-12-17T14:14:30.481Z,67.25
2022-12-17T14:16:57.437Z,71.18
2022-12-17T14:19:24.652Z,66.30
2022-12-17T14:21:51.814Z,71.50
2022-12-17T14:24:23.287Z,76.82
2022-12-17T14:26:50.963Z,72.50
2022-12-17T14:31:56.697Z,73.75
2022-12-17T14:34:23.785Z,73.10
2022-12-17T14:36:58.576Z,66.68
2022-12-17T14:39:33.021Z,71.88
2022-12-17T14:42:25.954Z,74.38
2022-12-17T14:44:54.272Z,70.68
2022-12-17T14:47:25.350Z,70.07
2022-12-17T14:50:28.844Z,69.13
2022-12-17T14:52:57.729Z,72.53
2022-12-17T14:55:38.173Z,71.82
2022-12-17T14:58:13.815Z,70.93
2022-12-17T15:00:59.550Z,76.03
2022-12-17T15:03:28.934Z,72.35
2022-12-17T15:06:02.246Z,76.00
2022-12-17T15:08:33.253Z,67.72
2022-12-17T15:10:59.623Z,73.25
2022-12-17T15:13:26.269Z,76.00
2022-12-17T15:15:53.056Z,69.77
2022-12-17T15:18:19.588Z,71.00
2022-12-17T15:20:46.199Z,70.53
2022-12-17T15:23:21.656Z,75.47
2022-12-17T15:25:50.259Z,71.68
2022-12-17T15:28:18.208Z,71.45
2022-12-17T15:30:45.183Z,75.45
2022-12-17T15:33:12.543Z,64.03
2022-12-17T15:35:39.292Z,73.78
2022-12-17T15:38:06.777Z,63.80
2022-12-17T15:40:35.709Z,72.32
2022-12-17T15:43:11.239Z,72.70
2022-12-17T15:45:49.642Z,82.60
2022-12-17T15:50:48.266Z,74.05
2022-12-17T15:53:14.801Z,82.55
2022-12-17T15:55:42.099Z,93.60
2022-12-17T15:58:11.435Z,87.20
2022-12-17T16:00:38.243Z,77.80
2022-12-17T16:03:04.740Z,78.57
2022-12-17T16:05:31.309Z,73.13
2022-12-17T16:08:02.098Z,76.25
2022-12-17T16:10:28.743Z,71.63
2022-12-17T16:12:55.089Z,79.32
2022-12-17T16:15:21.511Z,80.18
2022-12-17T16:17:47.948Z,80.45
2022-12-17T16:20:14.362Z,73.40
2022-12-17T16:22:40.817Z,92.82
2022-12-17T16:25:07.634Z,76.88
2022-12-17T16:27:34.072Z,78.20
2022-12-17T16:30:00.587Z,79.00
2022-12-17T16:32:29.287Z,98.32
2022-12-17T16:34:59.775Z,80.55
2022-12-17T16:37:26.248Z,76.67
2022-12-17T16:39:58.221Z,77.40
2022-12-17T16:42:26.488Z,82.90
2022-12-17T16:44:52.963Z,79.10
2022-12-17T16:47:22.409Z,84.45
2022-12-17T16:49:50.618Z,72.05
2022-12-17T16:52:17.237Z,73.90
2022-12-17T16:54:43.685Z,85.97
2022-12-17T16:57:10.212Z,78.53
2022-12-17T16:59:36.769Z,67.88
2022-12-17T17:02:03.382Z,79.85
2022-12-17T17:04:30.363Z,80.97
2022-12-17T17:06:57.348Z,75.67
2022-12-17T17:09:25.298Z,75.22
2022-12-17T17:11:55.838Z,86.50
2022-12-17T17:14:22.496Z,83.97
2022-12-17T17:16:48.955Z,78.35
2022-12-17T17:19:16.038Z,90.97
2022-12-17T17:21:52.430Z,91.07
2022-12-17T17:24:21.922Z,86.70
2022-12-17T17:26:51.445Z,85.47
2022-12-17T17:29:18.639Z,84.00
2022-12-17T17:34:31.893Z,84.00
2022-12-17T17:36:58.388Z,88.70
2022-12-17T17:39:24.887Z,74.95
2022-12-17T17:41:51.992Z,93.72
2022-12-17T17:44:18.509Z,97.25
2022-12-17T17:46:45.368Z,86.57
2022-12-17T17:49:12.603Z,89.80
2022-12-17T17:54:29.296Z,93.55
2022-12-17T17:56:55.854Z,81.85
2022-12-17T17:59:27.817Z,86.15
2022-12-17T18:01:59.297Z,89.97
2022-12-17T18:04:25.825Z,81.43
2022-12-17T18:07:23.725Z,88.55
2022-12-17T18:09:39.135Z,93.10
2022-12-17T18:12:25.954Z,89.63
2022-12-17T18:15:13.120Z,102.97
2022-12-17T18:17:39.234Z,93.45
2022-12-17T18:20:06.372Z,97.80
2022-12-17T18:22:32.729Z,86.95
2022-12-17T18:24:59.177Z,89.43
2022-12-17T18:27:25.580Z,96.15
2022-12-17T18:29:52.222Z,97.10
2022-12-17T18:32:18.652Z,100.45
2022-12-17T18:34:45.131Z,99.70
2022-12-17T18:37:11.540Z,105.30
2022-12-17T18:39:37.944Z,95.75
2022-12-17T18:42:23.102Z,103.93
2022-12-17T18:44:49.723Z,99.75
2022-12-17T18:47:19.615Z,98.70
2022-12-17T18:49:46.086Z,95.18
2022-12-17T18:52:16.702Z,97.20
2022-12-17T18:54:44.177Z,92.97
2022-12-17T18:57:10.969Z,94.00
2022-12-17T18:59:38.579Z,98.07
2022-12-17T19:02:05.157Z,93.47
2022-12-17T19:04:32.898Z,100.28
2022-12-17T19:06:59.763Z,96.60
2022-12-17T19:09:31.248Z,86.60
2022-12-17T19:11:58.431Z,91.85
2022-12-17T19:14:25.705Z,100.78
2022-12-17T19:16:54.192Z,102.60
2022-12-17T19:19:21.750Z,110.25
2022-12-17T19:21:48.793Z,117.53
2022-12-17T19:24:17.732Z,128.50
2022-12-17T19:26:44.810Z,120.57
2022-12-17T19:29:13.785Z,123.10
2022-12-17T19:31:40.554Z,109.68
2022-12-17T19:34:10.148Z,92.10
2022-12-17T19:36:38.367Z,98.15
2022-12-17T19:39:07.574Z,100.13
2022-12-17T19:41:34.366Z,110.28
2022-12-17T19:44:03.392Z,114.97
2022-12-17T19:46:30.723Z,102.90
2022-12-17T19:48:57.566Z,113.57
2022-12-17T19:51:26.463Z,94.20
2022-12-17T19:53:54.278Z,135.63
2022-12-17T19:56:22.022Z,96.45
2022-12-17T20:01:19.578Z,95.95
2022-12-17T20:03:47.084Z,90.07
2022-12-17T20:06:15.843Z,83.55
2022-12-17T20:08:42.459Z,89.15
2022-12-17T20:11:30.229Z,89.25
2022-12-17T20:14:06.984Z,100.00
2022-12-17T20:16:36.491Z,90.20
2022-12-17T20:19:04.657Z,90.20
2022-12-17T20:21:31.119Z,90.75
2022-12-17T20:23:57.994Z,102.40
2022-12-17T20:26:24.910Z,102.45
2022-12-17T20:28:51.775Z,95.00
2022-12-17T20:31:18.847Z,97.27
2022-12-17T20:33:45.429Z,104.25
2022-12-17T20:36:17.513Z,99.68
2022-12-17T20:38:44.784Z,100.75
2022-12-17T20:41:14.245Z,99.45
2022-12-17T20:43:41.242Z,91.38
2022-12-17T20:46:12.339Z,97.63
2022-12-17T20:48:41.191Z,86.68
2022-12-17T20:51:10.444Z,93.47
2022-12-17T20:53:37.611Z,93.68
2022-12-17T20:56:07.769Z,93.90
2022-12-17T20:58:35.090Z,100.50
2022-12-17T21:01:06.086Z,90.13
2022-12-17T21:03:33.410Z,111.47
2022-12-17T21:06:10.976Z,103.15
2022-12-17T21:08:39.241Z,104.43
2022-12-17T21:11:07.905Z,110.60
2022-12-17T21:13:35.852Z,113.45
2022-12-17T21:16:06.214Z,114.90
2022-12-17T21:18:33.538Z,108.78
2022-12-17T21:21:03.941Z,119.15
2022-12-17T21:23:32.216Z,122.80
2022-12-17T21:26:11.484Z,123.82
2022-12-17T21:28:39.552Z,119.80
2022-12-17T21:31:06.332Z,125.55
2022-12-17T21:33:33.611Z,125.97
2022-12-17T21:36:07.992Z,109.03
2022-12-17T21:38:34.561Z,123.53
2022-12-17T21:41:12.359Z,101.28
2022-12-17T21:43:40.188Z,102.90
2022-12-17T21:46:08.059Z,101.00
2022-12-17T21:48:41.700Z,104.88
2022-12-17T21:51:11.005Z,104.72
2022-12-17T21:53:42.082Z,100.32
2022-12-17T21:56:11.826Z,86.40
2022-12-17T21:58:39.634Z,89.47
2022-12-17T22:01:25.420Z,83.88
2022-12-17T22:03:54.609Z,93.95
2022-12-17T22:06:25.326Z,87.65
2022-12-17T22:08:59.914Z,104.68
2022-12-17T22:11:29.538Z,93.43
2022-12-17T22:14:07.466Z,96.55
2022-12-17T22:16:39.081Z,99.07
2022-12-17T22:19:07.090Z,97.80
2022-12-17T22:21:35.774Z,99.60
2022-12-17T22:24:02.776Z,106.45
2022-12-17T22:26:29.794Z,109.57
2022-12-17T22:28:56.723Z,98.63
2022-12-17T22:31:42.437Z,87.78
2022-12-17T22:35:15.848Z,95.78
2022-12-17T22:41:07.279Z,99.88
2022-12-17T22:42:57.704Z,88.35
2022-12-17T22:44:46.139Z,101.90
2022-12-17T22:45:42.079Z,115.22
2022-12-17T22:48:10.558Z,109.93
2022-12-17T22:50:43.300Z,110.65
2022-12-17T22:53:24.440Z,117.32
2022-12-17T22:55:52.050Z,121.40
2022-12-17T22:58:18.657Z,121.63
2022-12-17T23:00:45.271Z,130.98
2022-12-17T23:03:11.833Z,138.90
2022-12-17T23:05:38.494Z,159.65
2022-12-17T23:08:05.060Z,139.88
2022-12-17T23:10:31.512Z,124.70
2022-12-17T23:12:57.985Z,114.97
2022-12-17T23:15:33.085Z,98.55
2022-12-17T23:18:01.830Z,103.32
2022-12-17T23:20:30.689Z,86.03
2022-12-17T23:22:57.416Z,95.63
2022-12-17T23:25:24.338Z,103.30
2022-12-17T23:27:51.207Z,98.25
2022-12-17T23:30:18.006Z,90.87
2022-12-17T23:32:44.809Z,92.20
2022-12-17T23:35:12.309Z,109.23
2022-12-17T23:37:40.399Z,102.00
2022-12-17T23:40:10.669Z,117.95
2022-12-17T23:42:37.300Z,110.72
2022-12-17T23:45:04.467Z,110.82
2022-12-17T23:47:31.206Z,116.05
2022-12-17T23:49:57.716Z,108.43
2022-12-17T23:52:24.305Z,122.63
2022-12-17T23:54:50.709Z,118.25
2022-12-17T23:57:17.144Z,106.88
2022-12-17T23:59:43.535Z,102.43
